Aeroporto :
LOGIN :

Iscrizione | Disclaimer

   EN    FR    IT 

 










Sommario :    VFR   VFR Marginale   IFR   IFR Intensivo   IFR Molto Intensivo
Visibilità : 
Base nubi : 
>= 8 km
>= 3000ft
5 / 8 km
1000 / 3000 ft
1500m / 5 km
500 / 1000 ft
800 / 1500m
200 / 500 ft
< 800m
< 200 ft
Simboli :   Temporali  Nebbia  Neve Forte  Precipitazioni Forti  Vento > 20 kt
SIGMETs :   Varie  Temporali  Ghiacco  Turbolenza  Onda orograficha  Ceneri Vulcaniche






- Altitudine del aeroporto : 333 ft


LIPL - Ghedi Brescia (Mil)

ULTIMO METAR :
  • 212255Z 13003KT 9999 SCT030 BKN070 09/09 Q1013

METARs OBSOLETI :
  • 212155Z 10005KT 9999 SCT036 BKN060 09/09 Q1013
  • 212055Z 03008KT 9999 -RA SCT030 SCT046 10/10 Q1013 RMK OVC VIS MIN 9999 WIND THR31 03008KT WIND THR13 03010KT BLU
  • 211955Z 09008KT 9999 SCT034 SCT060 10/08 Q1012
  • 211855Z 06005KT 9999 FEW040 10/07 Q1011 RMK BKN SCT100 VIS MIN 9999 WIND THR31 08005KT WIND THR13 09004KT BLU

TAF TAF LIPL
Valido dal 22 a 00 ore il 22 a 09 ore UTC


212300Z 2200/2209 08010KT 8000 -RA BKN025 OVC070



MetMap, La meteo Aeronautica in un colpo d'occhio ! - Copyright ORBIFLY Dicembre 2007 - Disclaimer

ORBIFLY MET'MAP TEAM :

Programmazione e sviluppo : Alexandra Zaïnal
Concezione : Baudouin d'Aumeries
Supporto tecnico e logistico : Manuel Goepfert
Aiuto : Marc-Olivier Méhu
Aiuto per la traduzione : Arnaldo La Scala




FONTI E CREDITI :

   NOAA